Charles City, IA

7:38 AM CDT on September 18, 2019 (GMT -0500)
Charles City Municipal

Weather History for KCCY - August, 2019

Change the Weather History Date:

Sunday, August 18, 2019

  Actual Average Record
Temperature  
Mean Temperature 68 °F -  
Max Temperature 77 °F 82 °F 100 °F (1988)
Min Temperature 59 °F 58 °F 42 °F (2002)
Cooling Degree Days 4    
Growing Degree Days 18 (Base 50)    
Moisture  
Dew Point 64 °F    
Average Humidity 87    
Maximum Humidity 100    
Minimum Humidity 65    
Precipitation  
Precipitation 0.34 in - - ()
Sea Level Pressure  
Sea Level Pressure 29.84 in    
Wind  
Wind Speed 10 mph (WNW)    
Max Wind Speed 16 mph    
Max Gust Speed 32 mph    
Visibility 10 miles    
Events Rain    
Averages and records for this station are not official NWS values.
T = Trace of Precipitation, MM = Missing Value Source: NWS Daily Summary

Daily Weather History Graph

Daily Weather History Graph

Search for Another Location

Airport or City:

Astronomy

Aug. 18, 2019 Rise Set
Actual Time 6:19 AM CDT 8:08 PM CDT
Civil Twilight 5:48 AM CDT 8:38 PM CDT
Nautical Twilight 5:11 AM CDT 9:15 PM CDT
Astronomical Twilight 4:31 AM CDT 9:55 PM CDT
Moon 9:59 PM CDT 9:08 AM CDT
Length of Visible Light 14h 50m
Length of Day
13h 49m
Waning Gibbous, 91% of the Moon is Illuminated
Aug 18
Waning Gibbous
Aug 23
Last Quarter
Aug 30
New
Sep 5
First Quarter
Sep 13
Full

Hourly Weather History & Observations

Time (CDT) Temp. Dew Point Humidity Pressure Visibility Wind Dir Wind Speed Gust Speed Precip Events Conditions
12:15 AM 69.8 °F 68.0 °F 94% 29.77 in 10.0 mi SSE 12.7 mph 24.2 mph N/A   Mostly Cloudy
12:35 AM 69.8 °F 68.0 °F 94% 29.77 in 10.0 mi SSE 12.7 mph 18.4 mph N/A   Overcast
12:55 AM 69.8 °F 68.0 °F 94% 29.76 in 10.0 mi SSE 11.5 mph 18.4 mph N/A   Overcast
1:15 AM 69.8 °F 68.0 °F 94% 29.75 in 10.0 mi SSE 12.7 mph 20.7 mph N/A   Overcast
1:35 AM 69.8 °F 68.0 °F 94% 29.74 in 10.0 mi SSE 10.4 mph 17.3 mph N/A   Overcast
1:55 AM 69.8 °F 68.0 °F 94% 29.73 in 10.0 mi SSE 10.4 mph 18.4 mph 0.01 in   Overcast
2:15 AM 69.8 °F 69.8 °F 100% 29.73 in - SSE 11.5 mph 17.3 mph N/A   Unknown
2:35 AM 64.4 °F 62.6 °F 94% 29.79 in 2.0 mi WNW 16.1 mph 32.2 mph N/A Rain Rain
2:55 AM 62.6 °F 62.6 °F 100% 29.79 in 4.0 mi WSW 8.1 mph 16.1 mph 0.30 in Rain Rain
3:15 AM 62.6 °F 62.6 °F 100% 29.78 in 6.0 mi West 8.1 mph - N/A Rain Rain
3:35 AM 62.6 °F 62.6 °F 100% 29.78 in 6.0 mi West 6.9 mph - N/A Rain Rain
4:15 AM 62.6 °F 62.6 °F 100% 29.69 in 9.0 mi NW 3.5 mph - N/A Rain Light Rain
4:35 AM 62.6 °F 62.6 °F 100% 29.66 in 10.0 mi Variable 4.6 mph 11.5 mph N/A   Partly Cloudy
4:55 AM 62.6 °F 60.8 °F 94% 29.66 in 10.0 mi WSW 3.5 mph - 0.03 in   Scattered Clouds
5:15 AM 62.6 °F 60.8 °F 94% 29.65 in 10.0 mi SSW 5.8 mph - N/A   Mostly Cloudy
5:35 AM 62.6 °F 62.6 °F 100% 29.70 in 10.0 mi South 9.2 mph - N/A   Scattered Clouds
5:55 AM 62.6 °F 62.6 °F 100% 29.76 in 10.0 mi South 11.5 mph - N/A   Partly Cloudy
6:15 AM 62.6 °F 62.6 °F 100% 29.80 in 10.0 mi South 13.8 mph - N/A   Mostly Cloudy
6:35 AM 62.6 °F 62.6 °F 100% 29.78 in 10.0 mi South 11.5 mph 19.6 mph N/A   Mostly Cloudy
6:55 AM 62.6 °F 62.6 °F 100% 29.79 in 10.0 mi Variable 6.9 mph 13.8 mph N/A   Mostly Cloudy
7:15 AM 62.6 °F 62.6 °F 100% 29.81 in 10.0 mi SW 8.1 mph - N/A   Mostly Cloudy
7:35 AM 62.6 °F 62.6 °F 100% 29.84 in 10.0 mi SW 10.4 mph - N/A   Overcast
7:55 AM 62.6 °F 62.6 °F 100% 29.85 in 10.0 mi SW 11.5 mph - N/A   Overcast
8:15 AM 64.4 °F 62.6 °F 94% 29.85 in 10.0 mi WSW 11.5 mph - N/A   Overcast
8:35 AM 64.4 °F 62.6 °F 94% 29.85 in 10.0 mi WSW 9.2 mph 15.0 mph N/A   Mostly Cloudy
8:55 AM 64.4 °F 62.6 °F 94% 29.85 in 10.0 mi WSW 11.5 mph 17.3 mph N/A   Scattered Clouds
9:15 AM 64.4 °F 64.4 °F 100% 29.85 in 10.0 mi West 11.5 mph - N/A   Mostly Cloudy
9:35 AM 64.4 °F 64.4 °F 100% 29.86 in 10.0 mi WSW 8.1 mph 16.1 mph N/A   Mostly Cloudy
9:55 AM 66.2 °F 64.4 °F 94% 29.86 in 10.0 mi West 10.4 mph - N/A   Mostly Cloudy
10:15 AM 66.2 °F 64.4 °F 94% 29.86 in 10.0 mi West 11.5 mph - N/A   Partly Cloudy
10:55 AM 69.8 °F 64.4 °F 83% 29.86 in 10.0 mi West 11.5 mph - N/A   Clear
11:15 AM 71.6 °F 64.4 °F 78% 29.86 in 10.0 mi West 11.5 mph 20.7 mph N/A   Clear
11:35 AM 71.6 °F 64.4 °F 78% 29.85 in 10.0 mi WNW 11.5 mph 18.4 mph N/A   Scattered Clouds
11:55 AM 71.6 °F 64.4 °F 78% 29.85 in 10.0 mi WNW 12.7 mph 18.4 mph N/A   Partly Cloudy
12:15 PM 73.4 °F 64.4 °F 73% 29.84 in 10.0 mi NW 13.8 mph 19.6 mph N/A   Partly Cloudy
12:35 PM 73.4 °F 64.4 °F 73% 29.84 in - WNW 13.8 mph - N/A   Partly Cloudy
12:55 PM 75.2 °F 66.2 °F 73% 29.84 in 10.0 mi WNW 13.8 mph - N/A   Partly Cloudy
1:15 PM 75.2 °F 66.2 °F 73% 29.84 in 10.0 mi NW 13.8 mph 19.6 mph N/A   Scattered Clouds
1:35 PM 73.4 °F 66.2 °F 78% 29.85 in 10.0 mi WNW 11.5 mph 20.7 mph N/A   Scattered Clouds
2:15 PM 75.2 °F 66.2 °F 73% 29.86 in 10.0 mi NW 12.7 mph 20.7 mph N/A   Scattered Clouds
2:35 PM 75.2 °F 66.2 °F 73% 29.86 in 10.0 mi NW 13.8 mph - N/A   Clear
2:55 PM 75.2 °F 64.4 °F 69% 29.86 in 10.0 mi NW 11.5 mph 19.6 mph N/A   Clear
3:15 PM 77.0 °F 66.2 °F 69% 29.86 in 10.0 mi NW 10.4 mph - N/A   Scattered Clouds
3:35 PM 75.2 °F 64.4 °F 69% 29.86 in 10.0 mi NW 10.4 mph 17.3 mph N/A   Scattered Clouds
3:55 PM 77.0 °F 64.4 °F 65% 29.86 in 10.0 mi NW 11.5 mph - N/A   Clear
4:15 PM 77.0 °F 66.2 °F 69% 29.86 in 10.0 mi WNW 10.4 mph - N/A   Partly Cloudy
4:35 PM 77.0 °F 64.4 °F 65% 29.86 in 10.0 mi NW 10.4 mph - N/A   Partly Cloudy
4:55 PM 77.0 °F 66.2 °F 69% 29.87 in 10.0 mi NW 6.9 mph 15.0 mph N/A   Partly Cloudy
5:15 PM 75.2 °F 64.4 °F 69% 29.87 in 10.0 mi NW 9.2 mph - N/A   Partly Cloudy
5:35 PM 75.2 °F 64.4 °F 69% 29.88 in 10.0 mi NW 10.4 mph - N/A   Partly Cloudy
5:55 PM 75.2 °F 62.6 °F 65% 29.89 in 10.0 mi NW 8.1 mph 15.0 mph N/A   Clear
6:15 PM 73.4 °F 64.4 °F 73% 29.89 in 10.0 mi Variable 5.8 mph - N/A   Mostly Cloudy
6:35 PM 73.4 °F 64.4 °F 73% 29.89 in 10.0 mi Calm Calm - N/A   Mostly Cloudy
6:55 PM 73.4 °F 64.4 °F 73% 29.89 in 10.0 mi NNW 5.8 mph - N/A   Scattered Clouds
7:15 PM 71.6 °F 64.4 °F 78% 29.89 in 10.0 mi NNW 4.6 mph - N/A   Partly Cloudy
7:35 PM 69.8 °F 64.4 °F 83% 29.89 in 10.0 mi NNW 4.6 mph - N/A   Clear
7:55 PM 68.0 °F 64.4 °F 88% 29.90 in 10.0 mi NW 5.8 mph - N/A   Clear
8:15 PM 68.0 °F 64.4 °F 88% 29.90 in 10.0 mi NNW 5.8 mph - N/A   Clear
8:35 PM 66.2 °F 62.6 °F 88% 29.90 in 10.0 mi NNW 4.6 mph - N/A   Clear
8:55 PM 64.4 °F 62.6 °F 94% 29.91 in 10.0 mi NNW 4.6 mph - N/A   Clear
9:15 PM 64.4 °F 62.6 °F 94% 29.92 in 10.0 mi NNW 4.6 mph - N/A   Clear
9:35 PM 62.6 °F 60.8 °F 94% 29.93 in 10.0 mi NNW 4.6 mph - N/A   Clear
9:55 PM 62.6 °F 60.8 °F 94% 29.93 in 10.0 mi NNW 4.6 mph - N/A   Clear
10:15 PM 62.6 °F 60.8 °F 94% 29.94 in 10.0 mi North 3.5 mph - N/A   Clear
10:35 PM 62.6 °F 60.8 °F 94% 29.94 in 10.0 mi North 4.6 mph - N/A   Clear
10:55 PM 60.8 °F 60.8 °F 100% 29.95 in 10.0 mi NNW 4.6 mph - N/A   Clear
11:15 PM 60.8 °F 59.0 °F 94% 29.95 in 10.0 mi NNW 4.6 mph - N/A   Clear
11:35 PM 60.8 °F 59.0 °F 94% 29.95 in 10.0 mi North 3.5 mph - N/A   Clear
11:55 PM 59.0 °F 59.0 °F 100% 29.95 in 10.0 mi North 3.5 mph - N/A   Clear